createdAt,value
2019-03-08T00:00:50.606Z,0.131
2019-03-08T00:02:50.660Z,0.194
2019-03-08T00:04:49.800Z,0.171
2019-03-08T00:06:50.089Z,0.171
2019-03-08T00:08:50.492Z,0.222
2019-03-08T00:10:51.691Z,0.222
2019-03-08T00:12:50.633Z,0.120
2019-03-08T00:14:49.871Z,0.103
2019-03-08T00:16:50.319Z,0.108
2019-03-08T00:18:51.286Z,0.125
2019-03-08T00:20:50.006Z,0.114
2019-03-08T00:22:50.320Z,0.200
2019-03-08T00:24:50.544Z,0.114
2019-03-08T00:26:50.908Z,0.125
2019-03-08T00:28:50.757Z,0.108
2019-03-08T00:30:49.986Z,0.160
2019-03-08T00:32:50.185Z,0.148
2019-03-08T00:34:50.621Z,0.154
2019-03-08T00:36:50.575Z,0.148
2019-03-08T00:38:49.903Z,0.200
2019-03-08T00:40:50.138Z,0.171
2019-03-08T00:42:51.287Z,0.228
2019-03-08T00:44:50.127Z,0.171
2019-03-08T00:46:50.494Z,0.114
2019-03-08T00:48:50.639Z,0.217
2019-03-08T00:50:50.832Z,0.182
2019-03-08T00:52:49.812Z,0.165
2019-03-08T00:54:50.091Z,0.177
2019-03-08T00:56:50.510Z,0.257
2019-03-08T00:58:51.642Z,0.114
2019-03-08T01:00:50.313Z,0.137
2019-03-08T01:02:50.585Z,0.143
2019-03-08T01:04:50.192Z,0.125
2019-03-08T01:06:51.476Z,0.177
2019-03-08T01:08:50.463Z,0.148
2019-03-08T01:10:50.634Z,0.131
2019-03-08T01:12:49.871Z,0.160
2019-03-08T01:14:51.099Z,0.177
2019-03-08T01:16:50.146Z,0.188
2019-03-08T01:18:50.336Z,0.171
2019-03-08T01:20:50.527Z,0.143
2019-03-08T01:22:51.785Z,0.125
2019-03-08T01:24:50.557Z,0.182
2019-03-08T01:26:49.911Z,0.194
2019-03-08T01:28:50.210Z,0.228
2019-03-08T01:30:51.249Z,0.120
2019-03-08T01:32:50.158Z,0.143
2019-03-08T01:34:50.679Z,0.188
2019-03-08T01:36:50.122Z,0.148
2019-03-08T01:38:51.109Z,0.177
2019-03-08T01:40:49.820Z,0.160
2019-03-08T01:42:50.123Z,0.182
2019-03-08T01:44:50.402Z,0.171
2019-03-08T01:46:51.537Z,0.188
2019-03-08T01:48:50.201Z,0.160
2019-03-08T01:50:50.361Z,0.091
2019-03-08T01:52:50.537Z,0.160
2019-03-08T01:54:50.804Z,0.165
2019-03-08T01:56:50.609Z,0.165
2019-03-08T01:58:49.934Z,0.188
2019-03-08T02:00:50.217Z,0.143
2019-03-08T02:02:51.424Z,0.182
2019-03-08T02:04:50.451Z,0.154
2019-03-08T02:06:49.842Z,0.165
2019-03-08T02:08:50.102Z,0.103
2019-03-08T02:10:51.097Z,0.154
2019-03-08T02:12:50.738Z,0.177
2019-03-08T02:14:50.068Z,0.108
2019-03-08T02:16:50.484Z,0.143
2019-03-08T02:18:51.326Z,0.108
2019-03-08T02:20:52.741Z,0.125
2019-03-08T02:22:50.016Z,0.194
2019-03-08T02:24:50.276Z,0.182
2019-03-08T02:26:51.303Z,0.171
2019-03-08T02:28:50.622Z,0.171
2019-03-08T02:30:49.928Z,0.131
2019-03-08T02:32:50.256Z,0.148
2019-03-08T02:34:50.679Z,0.211
2019-03-08T02:36:50.536Z,0.137
2019-03-08T02:38:50.767Z,0.200
2019-03-08T02:40:49.970Z,0.165
2019-03-08T02:42:51.001Z,0.154
2019-03-08T02:44:50.619Z,0.137
2019-03-08T02:46:50.060Z,0.182
2019-03-08T02:48:50.213Z,0.165
2019-03-08T02:50:50.625Z,0.137
2019-03-08T02:52:50.016Z,0.148
2019-03-08T02:54:50.215Z,0.154
2019-03-08T02:56:50.549Z,0.279
2019-03-08T02:58:50.203Z,0.165
2019-03-08T03:00:50.416Z,0.165
2019-03-08T03:02:50.608Z,0.177
2019-03-08T03:04:50.346Z,0.188
2019-03-08T03:06:50.750Z,0.114
2019-03-08T03:08:50.008Z,0.160
2019-03-08T03:10:50.278Z,0.200
2019-03-08T03:12:50.501Z,0.182
2019-03-08T03:14:50.806Z,0.131
2019-03-08T03:16:50.177Z,0.137
2019-03-08T03:18:50.402Z,0.165
2019-03-08T03:20:50.590Z,0.108
2019-03-08T03:22:49.891Z,0.154
2019-03-08T03:24:50.129Z,0.177
2019-03-08T03:26:50.452Z,0.131
2019-03-08T03:28:50.658Z,0.143
2019-03-08T03:30:49.964Z,0.171
2019-03-08T03:32:50.320Z,0.120
2019-03-08T03:34:50.038Z,0.154
2019-03-08T03:36:50.451Z,0.097
2019-03-08T03:38:50.624Z,0.154
2019-03-08T03:40:49.899Z,0.137
2019-03-08T03:42:50.152Z,0.228
2019-03-08T03:44:50.283Z,0.137
2019-03-08T03:46:50.679Z,0.188
2019-03-08T03:48:49.941Z,0.211
2019-03-08T03:50:50.137Z,0.205
2019-03-08T03:52:50.351Z,0.137
2019-03-08T03:54:50.566Z,0.177
2019-03-08T03:56:50.069Z,0.154
2019-03-08T03:58:50.243Z,0.154
2019-03-08T04:00:50.512Z,0.165
2019-03-08T04:02:50.696Z,0.211
2019-03-08T04:04:50.312Z,0.188
2019-03-08T04:06:50.640Z,0.188
2019-03-08T04:08:49.875Z,0.188
2019-03-08T04:10:50.110Z,0.143
2019-03-08T04:12:50.371Z,0.194
2019-03-08T04:14:50.527Z,0.200
2019-03-08T04:16:49.915Z,0.131
2019-03-08T04:18:50.112Z,0.160
2019-03-08T04:20:50.301Z,0.222
2019-03-08T04:22:50.472Z,0.154
2019-03-08T04:24:50.801Z,0.205
2019-03-08T04:26:50.188Z,0.148
2019-03-08T04:28:50.446Z,0.177
2019-03-08T04:30:50.575Z,0.194
2019-03-08T04:32:49.945Z,0.108
2019-03-08T04:34:50.548Z,0.165
2019-03-08T04:36:49.954Z,0.137
2019-03-08T04:38:50.200Z,0.125
2019-03-08T04:40:50.415Z,0.154
2019-03-08T04:42:50.651Z,0.160
2019-03-08T04:44:50.009Z,0.148
2019-03-08T04:46:50.441Z,0.171
2019-03-08T04:48:50.574Z,0.188
2019-03-08T04:50:49.876Z,0.171
2019-03-08T04:52:50.131Z,0.234
2019-03-08T04:54:50.304Z,0.234
2019-03-08T04:56:50.594Z,0.205
2019-03-08T04:58:49.822Z,0.165
2019-03-08T05:00:49.967Z,0.200
2019-03-08T05:02:50.194Z,0.171
2019-03-08T05:04:49.838Z,0.182
2019-03-08T05:06:50.230Z,0.200
2019-03-08T05:08:50.476Z,0.108
2019-03-08T05:10:50.616Z,0.165
2019-03-08T05:12:49.925Z,0.165
2019-03-08T05:14:50.222Z,0.086
2019-03-08T05:16:50.673Z,0.143
2019-03-08T05:18:49.831Z,0.171
2019-03-08T05:20:50.123Z,0.160
2019-03-08T05:22:50.321Z,0.154
2019-03-08T05:24:50.472Z,0.154
2019-03-08T05:26:50.373Z,0.177
2019-03-08T05:28:50.731Z,0.137
2019-03-08T05:30:50.503Z,0.143
2019-03-08T05:32:49.792Z,0.182
2019-03-08T05:34:50.419Z,0.188
2019-03-08T05:36:50.863Z,0.160
2019-03-08T05:38:50.181Z,0.200
2019-03-08T05:40:50.425Z,0.125
2019-03-08T05:42:50.601Z,0.165
2019-03-08T05:44:49.901Z,0.182
2019-03-08T05:46:51.071Z,0.194
2019-03-08T05:48:50.473Z,0.154
2019-03-08T05:50:50.724Z,0.205
2019-03-08T05:52:50.002Z,0.148
2019-03-08T05:54:51.174Z,0.148
2019-03-08T05:56:50.129Z,0.222
2019-03-08T05:58:50.347Z,0.473
2019-03-08T06:00:50.558Z,0.513
2019-03-08T06:02:51.013Z,0.576
2019-03-08T06:04:50.074Z,0.713
2019-03-08T06:06:50.415Z,0.513
2019-03-08T06:08:50.591Z,0.570
2019-03-08T06:10:50.045Z,0.553
2019-03-08T06:12:50.717Z,0.502
2019-03-08T06:14:49.983Z,0.536
2019-03-08T06:16:50.286Z,0.536
2019-03-08T06:18:50.493Z,0.587
2019-03-08T06:20:50.732Z,393.026
2019-03-08T06:22:50.022Z,747.088
2019-03-08T06:24:50.282Z,747.088
2019-03-08T06:26:50.762Z,747.088
2019-03-08T06:28:49.951Z,747.088
2019-03-08T06:30:50.208Z,747.088
2019-03-08T06:32:50.434Z,747.088
2019-03-08T06:34:49.970Z,747.088
2019-03-08T06:36:49.831Z,747.088
2019-03-08T06:38:50.058Z,747.088
2019-03-08T06:40:50.307Z,747.088
2019-03-08T06:42:50.514Z,747.088
2019-03-08T06:44:50.775Z,747.088
2019-03-08T06:46:50.243Z,747.088
2019-03-08T06:48:50.438Z,747.088
2019-03-08T06:50:50.565Z,747.088
2019-03-08T06:52:50.822Z,104.230
2019-03-08T06:54:50.132Z,0.519
2019-03-08T06:56:50.481Z,0.502
2019-03-08T06:58:50.620Z,157.907
2019-03-08T07:00:49.877Z,0.524
2019-03-08T07:02:50.823Z,23.803
2019-03-08T07:04:50.490Z,420.153
2019-03-08T07:06:49.864Z,0.541
2019-03-08T07:08:50.140Z,0.308
2019-03-08T07:10:50.362Z,0.427
2019-03-08T07:12:51.303Z,0.427
2019-03-08T07:14:49.851Z,0.564
2019-03-08T07:16:50.146Z,0.416
2019-03-08T07:18:52.281Z,0.348
2019-03-08T07:20:51.428Z,0.485
2019-03-08T07:22:50.129Z,0.462
2019-03-08T07:24:50.711Z,0.485
2019-03-08T07:26:50.308Z,0.359
2019-03-08T07:28:51.354Z,0.359
2019-03-08T07:30:58.638Z,0.325
2019-03-08T07:32:49.910Z,0.530
2019-03-08T07:34:50.527Z,0.536
2019-03-08T07:36:51.288Z,0.547
2019-03-08T07:38:50.170Z,0.234
2019-03-08T07:40:49.905Z,0.137
2019-03-08T07:42:50.207Z,0.148
2019-03-08T07:44:50.782Z,0.160
2019-03-08T07:46:50.659Z,0.097
2019-03-08T07:48:50.634Z,0.171
2019-03-08T07:50:49.816Z,0.200
2019-03-08T07:52:50.743Z,0.200
2019-03-08T07:54:53.666Z,0.165
2019-03-08T07:56:50.445Z,0.177
2019-03-08T07:58:50.713Z,0.143
2019-03-08T08:00:50.769Z,0.154
2019-03-08T08:02:50.211Z,0.182
2019-03-08T08:04:50.687Z,0.205
2019-03-08T08:06:50.117Z,0.143
2019-03-08T08:08:52.390Z,0.177
2019-03-08T08:10:49.930Z,0.143
2019-03-08T08:12:50.227Z,0.177
2019-03-08T08:14:50.688Z,0.097
2019-03-08T08:16:50.617Z,0.137
2019-03-08T08:18:50.118Z,0.154
2019-03-08T08:20:50.301Z,0.114
2019-03-08T08:22:50.561Z,0.114
2019-03-08T08:24:50.569Z,0.137
2019-03-08T08:26:50.072Z,0.137
2019-03-08T08:28:50.722Z,0.137
2019-03-08T08:30:50.593Z,0.148
2019-03-08T08:32:49.876Z,0.143
2019-03-08T08:34:50.482Z,0.160
2019-03-08T08:36:50.110Z,0.160
2019-03-08T08:38:49.845Z,0.160
2019-03-08T08:40:50.599Z,0.160
2019-03-08T08:42:50.020Z,0.120
2019-03-08T08:44:50.280Z,0.143
2019-03-08T08:46:50.787Z,0.125
2019-03-08T08:48:50.743Z,0.131
2019-03-08T08:50:50.334Z,0.200
2019-03-08T08:52:50.558Z,0.165
2019-03-08T08:54:50.000Z,0.217
2019-03-08T08:56:50.379Z,0.171
2019-03-08T08:58:50.540Z,0.160
2019-03-08T09:00:50.828Z,0.165
2019-03-08T09:02:50.087Z,0.154
2019-03-08T09:04:49.790Z,0.182
2019-03-08T09:06:50.194Z,0.182
2019-03-08T09:08:50.133Z,0.137
2019-03-08T09:10:50.353Z,0.177
2019-03-08T09:12:50.323Z,0.171
2019-03-08T09:14:50.553Z,0.194
2019-03-08T09:16:49.991Z,0.182
2019-03-08T09:18:50.205Z,0.171
2019-03-08T09:20:50.425Z,0.194
2019-03-08T09:22:50.612Z,0.177
2019-03-08T09:24:50.808Z,0.165
2019-03-08T09:26:50.534Z,0.211
2019-03-08T09:28:50.101Z,0.188
2019-03-08T09:30:50.344Z,0.131
2019-03-08T09:32:59.916Z,0.108
2019-03-08T09:34:50.597Z,0.160
2019-03-08T09:36:50.397Z,0.200
2019-03-08T09:38:50.666Z,0.143
2019-03-08T09:40:50.213Z,0.137
2019-03-08T09:42:50.411Z,0.182
2019-03-08T09:44:50.572Z,0.222
2019-03-08T09:46:50.073Z,0.125
2019-03-08T09:48:50.240Z,0.131
2019-03-08T09:50:50.457Z,0.125
2019-03-08T09:52:50.207Z,0.200
2019-03-08T09:54:50.451Z,0.148
2019-03-08T09:56:49.868Z,0.143
2019-03-08T09:58:50.079Z,0.143
2019-03-08T10:00:50.253Z,0.160
2019-03-08T10:02:50.541Z,0.137
2019-03-08T10:04:50.026Z,0.165
2019-03-08T10:06:50.402Z,0.103
2019-03-08T10:08:50.407Z,0.131
2019-03-08T10:10:50.008Z,0.143
2019-03-08T10:12:50.105Z,0.120
2019-03-08T10:14:50.368Z,0.160
2019-03-08T10:16:49.885Z,0.154
2019-03-08T10:18:49.908Z,0.148
2019-03-08T10:20:49.888Z,0.143
2019-03-08T10:22:50.099Z,0.120
2019-03-08T10:24:50.338Z,0.165
2019-03-08T10:26:50.685Z,0.148
2019-03-08T10:28:49.895Z,0.160
2019-03-08T10:30:50.007Z,0.125
2019-03-08T10:32:50.294Z,0.137
2019-03-08T10:34:49.843Z,0.143
2019-03-08T10:36:50.165Z,0.160
2019-03-08T10:38:49.992Z,0.143
2019-03-08T10:40:50.157Z,0.188
2019-03-08T10:42:50.327Z,0.125
2019-03-08T10:44:50.550Z,0.131
2019-03-08T10:46:50.054Z,0.171
2019-03-08T10:48:50.169Z,0.171
2019-03-08T10:50:52.090Z,0.182
2019-03-08T10:52:50.252Z,0.125
2019-03-08T10:54:50.409Z,0.143
2019-03-08T10:56:50.725Z,0.200
2019-03-08T10:58:49.969Z,0.091
2019-03-08T11:00:50.207Z,0.137
2019-03-08T11:02:50.440Z,0.086
2019-03-08T11:04:50.100Z,0.131
2019-03-08T11:06:50.350Z,0.177
2019-03-08T11:08:50.059Z,0.148
2019-03-08T11:10:50.256Z,0.154
2019-03-08T11:12:50.110Z,0.182
2019-03-08T11:14:50.352Z,0.160
2019-03-08T11:16:50.698Z,0.171
2019-03-08T11:18:49.932Z,0.182
2019-03-08T11:20:50.128Z,0.182
2019-03-08T11:22:50.350Z,0.177
2019-03-08T11:24:49.909Z,0.171
2019-03-08T11:26:50.384Z,0.188
2019-03-08T11:28:50.608Z,0.171
2019-03-08T11:30:54.649Z,0.131
2019-03-08T11:32:50.400Z,0.154
2019-03-08T11:34:52.755Z,0.188
2019-03-08T11:36:50.215Z,0.137
2019-03-08T11:38:50.630Z,0.120
2019-03-08T11:40:49.910Z,0.165
2019-03-08T11:42:49.873Z,0.211
2019-03-08T11:44:49.818Z,0.148
2019-03-08T11:46:50.139Z,0.160
2019-03-08T11:48:50.176Z,0.120
2019-03-08T11:50:50.017Z,0.120
2019-03-08T11:52:50.310Z,0.182
2019-03-08T11:54:50.597Z,0.245
2019-03-08T11:56:56.910Z,0.211
2019-03-08T11:58:49.874Z,0.120
2019-03-08T12:00:50.056Z,0.165
2019-03-08T12:02:50.844Z,0.177
2019-03-08T12:04:50.403Z,0.205
2019-03-08T12:06:50.380Z,0.171
2019-03-08T12:08:50.600Z,0.148
2019-03-08T12:10:50.824Z,0.171
2019-03-08T12:12:50.160Z,0.131
2019-03-08T12:14:50.774Z,0.108
2019-03-08T12:16:50.136Z,0.148
2019-03-08T12:18:50.515Z,0.137
2019-03-08T12:20:49.864Z,0.177
2019-03-08T12:22:50.649Z,0.148
2019-03-08T12:24:50.456Z,0.171
2019-03-08T12:26:50.013Z,0.125
2019-03-08T12:28:50.224Z,0.188
2019-03-08T12:30:50.801Z,0.160
2019-03-08T12:32:49.980Z,0.205
2019-03-08T12:34:50.518Z,0.154
2019-03-08T12:36:49.900Z,0.148
2019-03-08T12:38:50.113Z,0.211
2019-03-08T12:40:50.331Z,0.177
2019-03-08T12:42:50.630Z,0.154
2019-03-08T12:44:49.871Z,0.171
2019-03-08T12:46:50.350Z,0.171
2019-03-08T12:48:50.776Z,0.086
2019-03-08T12:50:50.028Z,0.165
2019-03-08T12:52:50.558Z,0.171
2019-03-08T12:54:50.771Z,0.143
2019-03-08T12:56:50.457Z,0.131
2019-03-08T12:58:50.864Z,0.143
2019-03-08T13:00:50.660Z,0.154
2019-03-08T13:02:50.400Z,0.148
2019-03-08T13:04:49.884Z,0.188
2019-03-08T13:06:51.186Z,0.160
2019-03-08T13:08:50.553Z,0.000
2019-03-08T13:10:50.440Z,0.000
2019-03-08T13:12:50.748Z,0.000
2019-03-08T13:14:51.166Z,145.874
2019-03-08T13:16:50.222Z,0.154
2019-03-08T13:18:50.423Z,0.262
2019-03-08T13:20:50.771Z,0.137
2019-03-08T13:22:51.031Z,0.222
2019-03-08T13:24:50.063Z,0.120
2019-03-08T13:26:50.475Z,0.137
2019-03-08T13:28:50.677Z,0.177
2019-03-08T13:30:50.645Z,0.165
2019-03-08T13:32:50.738Z,0.205
2019-03-08T13:34:50.409Z,0.154
2019-03-08T13:36:50.832Z,0.137
2019-03-08T13:38:50.823Z,0.165
2019-03-08T13:40:49.838Z,0.154
2019-03-08T13:42:50.101Z,0.148
2019-03-08T13:44:50.304Z,0.154
2019-03-08T13:46:51.806Z,0.137
2019-03-08T13:48:50.710Z,0.154
2019-03-08T13:50:50.037Z,0.131
2019-03-08T13:52:50.296Z,0.177
2019-03-08T13:54:51.473Z,0.160
2019-03-08T13:56:50.324Z,0.131
2019-03-08T13:58:50.642Z,0.154
2019-03-08T14:00:49.941Z,0.131
2019-03-08T14:02:51.171Z,0.217
2019-03-08T14:04:50.424Z,0.137
2019-03-08T14:06:49.809Z,0.103
2019-03-08T14:08:50.014Z,0.182
2019-03-08T14:10:51.356Z,0.177
2019-03-08T14:12:50.115Z,0.205
2019-03-08T14:14:50.455Z,0.137
2019-03-08T14:16:49.892Z,0.125
2019-03-08T14:18:51.267Z,0.160
2019-03-08T14:20:50.085Z,0.200
2019-03-08T14:22:50.148Z,0.177
2019-03-08T14:24:50.360Z,0.182
2019-03-08T14:26:51.252Z,0.160
2019-03-08T14:28:50.092Z,0.165
2019-03-08T14:30:58.617Z,0.205
2019-03-08T14:32:49.814Z,0.217
2019-03-08T14:34:55.353Z,0.120
2019-03-08T14:36:49.808Z,0.097
2019-03-08T14:38:50.056Z,0.137
2019-03-08T14:40:59.239Z,0.097
2019-03-08T14:42:51.190Z,0.114
2019-03-08T14:44:49.920Z,0.165
2019-03-08T14:46:57.792Z,0.154
2019-03-08T14:48:49.986Z,0.194
2019-03-08T14:50:50.256Z,0.148
2019-03-08T14:52:50.431Z,0.205
2019-03-08T14:54:50.145Z,0.205
2019-03-08T14:56:50.483Z,0.177
2019-03-08T14:58:50.628Z,0.177
2019-03-08T15:00:50.615Z,0.154
2019-03-08T15:02:50.077Z,0.160
2019-03-08T15:04:50.653Z,0.131
2019-03-08T15:06:50.074Z,0.194
2019-03-08T15:08:57.229Z,0.171
2019-03-08T15:10:51.782Z,0.171
2019-03-08T15:12:50.074Z,0.029
2019-03-08T15:14:50.114Z,685.801
2019-03-08T15:16:50.284Z,400.824
2019-03-08T15:18:50.568Z,747.088
2019-03-08T15:20:49.894Z,42.950
2019-03-08T15:22:50.076Z,12.973
2019-03-08T15:24:51.392Z,0.068
2019-03-08T15:26:50.058Z,0.148
2019-03-08T15:28:50.272Z,0.154
2019-03-08T15:30:50.591Z,0.177
2019-03-08T15:32:51.558Z,0.143
2019-03-08T15:34:50.119Z,0.143
2019-03-08T15:36:50.351Z,0.234
2019-03-08T15:38:59.401Z,0.177
2019-03-08T15:40:50.520Z,0.154
2019-03-08T15:42:50.693Z,0.165
2019-03-08T15:44:51.959Z,0.137
2019-03-08T15:46:50.172Z,0.137
2019-03-08T16:14:50.300Z,0.188
2019-03-08T16:16:50.590Z,0.200
2019-03-08T16:18:49.847Z,0.200
2019-03-08T16:20:50.000Z,0.177
2019-03-08T16:22:50.176Z,0.177
2019-03-08T16:24:50.347Z,0.143
2019-03-08T16:26:50.596Z,0.182
2019-03-08T16:28:50.733Z,0.143
2019-03-08T16:30:49.830Z,0.171
2019-03-08T16:32:49.962Z,0.143
2019-03-08T16:34:50.472Z,0.194
2019-03-08T16:36:50.679Z,0.143
2019-03-08T16:38:49.797Z,0.154
2019-03-08T16:40:50.939Z,0.188
2019-03-08T16:42:50.537Z,0.143
2019-03-08T16:44:50.659Z,0.120
2019-03-08T16:46:50.538Z,0.188
2019-03-08T16:48:50.675Z,0.148
2019-03-08T16:50:49.815Z,0.165
2019-03-08T16:52:49.947Z,0.177
2019-03-08T16:54:50.114Z,0.120
2019-03-08T16:56:50.319Z,0.217
2019-03-08T16:58:50.205Z,0.171
2019-03-08T17:00:50.340Z,0.131
2019-03-08T17:02:50.520Z,0.143
2019-03-08T17:04:50.020Z,0.165
2019-03-08T17:06:51.288Z,0.165
2019-03-08T17:08:49.998Z,0.143
2019-03-08T17:10:50.172Z,0.148
2019-03-08T17:12:50.271Z,0.194
2019-03-08T17:14:50.391Z,0.234
2019-03-08T17:16:50.058Z,0.148
2019-03-08T17:18:50.158Z,0.154
2019-03-08T17:20:50.300Z,0.194
2019-03-08T17:22:50.433Z,0.177
2019-03-08T17:24:50.529Z,0.131
2019-03-08T17:26:49.815Z,0.103
2019-03-08T17:28:49.996Z,0.262
2019-03-08T17:30:50.156Z,0.200
2019-03-08T17:32:50.266Z,0.171
2019-03-08T17:34:50.174Z,0.194
2019-03-08T17:36:50.073Z,0.131
2019-03-08T17:38:50.225Z,0.143
2019-03-08T17:40:51.370Z,0.137
2019-03-08T17:42:50.125Z,0.131
2019-03-08T17:44:50.012Z,0.148
2019-03-08T17:46:50.230Z,0.143
2019-03-08T17:48:50.747Z,0.120
2019-03-08T17:50:50.051Z,0.120
2019-03-08T17:52:50.402Z,0.120
2019-03-08T17:54:50.506Z,0.160
2019-03-08T17:56:50.445Z,0.143
2019-03-08T17:58:50.337Z,0.143
2019-03-08T18:00:50.165Z,0.177
2019-03-08T18:02:49.968Z,0.114
2019-03-08T18:04:50.333Z,0.091
2019-03-08T18:06:51.000Z,0.137
2019-03-08T18:08:49.790Z,0.154
2019-03-08T18:10:49.942Z,0.171
2019-03-08T18:12:50.078Z,0.097
2019-03-08T18:14:50.844Z,0.148
2019-03-08T18:16:50.048Z,0.125
2019-03-08T18:18:50.167Z,0.143
2019-03-08T18:20:50.346Z,0.125
2019-03-08T18:22:50.459Z,0.177
2019-03-08T18:24:50.359Z,0.165
2019-03-08T18:26:50.551Z,0.182
2019-03-08T18:28:50.254Z,0.177
2019-03-08T18:30:49.934Z,0.171
2019-03-08T18:32:50.148Z,0.137
2019-03-08T18:34:50.625Z,0.177
2019-03-08T18:36:49.883Z,0.143
2019-03-08T18:38:49.986Z,0.131
2019-03-08T18:40:51.133Z,0.131
2019-03-08T18:42:49.843Z,0.160
2019-03-08T18:44:50.079Z,0.171
2019-03-08T18:46:50.306Z,0.120
2019-03-08T18:48:50.522Z,0.177
2019-03-08T18:50:50.672Z,0.239
2019-03-08T18:52:50.077Z,0.171
2019-03-08T18:54:50.618Z,0.143
2019-03-08T18:56:50.329Z,0.148
2019-03-08T18:58:49.858Z,0.148
2019-03-08T19:00:50.209Z,0.171
2019-03-08T19:02:49.842Z,0.131
2019-03-08T19:04:50.123Z,0.239
2019-03-08T19:06:51.433Z,0.160
2019-03-08T19:08:50.138Z,0.165
2019-03-08T19:10:50.643Z,0.143
2019-03-08T19:12:49.825Z,0.097
2019-03-08T19:14:50.077Z,0.131
2019-03-08T19:16:49.790Z,0.194
2019-03-08T19:18:50.752Z,0.148
2019-03-08T19:20:50.259Z,0.137
2019-03-08T19:22:50.432Z,0.103
2019-03-08T19:24:50.613Z,0.120
2019-03-08T19:26:49.914Z,0.120
2019-03-08T19:28:50.031Z,0.182
2019-03-08T19:30:50.234Z,0.205
2019-03-08T19:32:51.829Z,0.177
2019-03-08T19:34:49.895Z,0.137
2019-03-08T19:36:50.097Z,0.137
2019-03-08T19:38:50.237Z,0.211
2019-03-08T19:40:50.671Z,0.114
2019-03-08T19:42:49.958Z,0.160
2019-03-08T19:44:50.146Z,0.165
2019-03-08T19:46:50.785Z,0.125
2019-03-08T19:48:49.928Z,0.205
2019-03-08T19:50:50.110Z,0.239
2019-03-08T19:52:50.319Z,0.165
2019-03-08T19:54:50.461Z,0.114
2019-03-08T19:56:50.793Z,0.165
2019-03-08T19:58:49.980Z,0.188
2019-03-08T20:00:50.125Z,0.177
2019-03-08T20:02:50.384Z,0.114
2019-03-08T20:04:49.887Z,0.205
2019-03-08T20:06:51.100Z,0.188
2019-03-08T20:08:50.342Z,0.103
2019-03-08T20:10:50.544Z,0.120
2019-03-08T20:12:50.685Z,0.125
2019-03-08T20:14:49.798Z,0.171
2019-03-08T20:16:49.998Z,0.160
2019-03-08T20:18:50.129Z,0.143
2019-03-08T20:20:50.418Z,0.143
2019-03-08T20:22:50.551Z,0.148
2019-03-08T20:24:50.665Z,0.177
2019-03-08T20:26:49.906Z,0.171
2019-03-08T20:28:50.179Z,0.143
2019-03-08T20:30:50.399Z,0.200
2019-03-08T20:32:51.603Z,0.143
2019-03-08T20:34:50.701Z,0.143
2019-03-08T20:36:49.968Z,0.160
2019-03-08T20:38:50.633Z,0.239
2019-03-08T20:40:50.435Z,0.103
2019-03-08T20:42:50.643Z,0.194
2019-03-08T20:44:50.749Z,0.177
2019-03-08T20:46:49.996Z,0.148
2019-03-08T20:48:50.156Z,0.234
2019-03-08T20:50:50.359Z,0.228
2019-03-08T20:52:50.530Z,0.148
2019-03-08T20:54:50.701Z,0.160
2019-03-08T20:56:49.990Z,0.177
2019-03-08T20:58:50.149Z,0.154
2019-03-08T21:00:50.325Z,0.114
2019-03-08T21:02:50.581Z,0.188
2019-03-08T21:04:50.011Z,0.188
2019-03-08T21:06:51.051Z,0.182
2019-03-08T21:08:49.919Z,0.137
2019-03-08T21:10:50.108Z,0.177
2019-03-08T21:12:50.257Z,0.148
2019-03-08T21:14:51.394Z,0.154
2019-03-08T21:16:50.293Z,0.154
2019-03-08T21:18:50.438Z,0.205
2019-03-08T21:20:50.628Z,0.125
2019-03-08T21:22:50.115Z,0.131
2019-03-08T21:24:50.384Z,0.131
2019-03-08T21:26:50.618Z,0.120
2019-03-08T21:28:50.782Z,0.137
2019-03-08T21:30:49.968Z,0.120
2019-03-08T21:32:50.234Z,0.182
2019-03-08T21:34:50.446Z,0.154
2019-03-08T21:36:50.678Z,0.217
2019-03-08T21:38:49.938Z,0.171
2019-03-08T21:40:50.122Z,0.143
2019-03-08T21:42:50.328Z,0.125
2019-03-08T21:44:50.455Z,0.131
2019-03-08T21:46:50.789Z,0.097
2019-03-08T21:48:52.654Z,0.114
2019-03-08T21:50:50.427Z,0.200
2019-03-08T21:52:50.649Z,0.211
2019-03-08T21:54:49.792Z,0.165
2019-03-08T21:56:50.925Z,0.148
2019-03-08T21:58:50.573Z,0.160
2019-03-08T22:00:50.771Z,0.160
2019-03-08T22:02:49.941Z,0.177
2019-03-08T22:04:50.275Z,0.188
2019-03-08T22:06:50.561Z,0.222
2019-03-08T22:08:50.748Z,0.171
2019-03-08T22:10:49.955Z,0.154
2019-03-08T22:12:50.146Z,0.182
2019-03-08T22:14:50.337Z,0.125
2019-03-08T22:16:50.497Z,0.148
2019-03-08T22:18:50.636Z,0.148
2019-03-08T22:20:49.874Z,0.165
2019-03-08T22:22:50.093Z,0.160
2019-03-08T22:24:50.251Z,0.171
2019-03-08T22:26:50.598Z,0.165
2019-03-08T22:28:50.809Z,0.177
2019-03-08T22:30:51.023Z,0.148
2019-03-08T22:32:49.888Z,0.148
2019-03-08T22:34:50.246Z,0.217
2019-03-08T22:36:50.549Z,0.137
2019-03-08T22:38:51.302Z,0.154
2019-03-08T22:40:50.631Z,0.068
2019-03-08T22:42:49.835Z,0.068
2019-03-08T22:44:50.013Z,0.148
2019-03-08T22:46:50.336Z,0.177
2019-03-08T22:48:50.470Z,0.148
2019-03-08T22:50:50.684Z,0.137
2019-03-08T22:52:49.853Z,0.171
2019-03-08T22:54:50.026Z,0.154
2019-03-08T22:56:50.332Z,0.200
2019-03-08T22:58:50.442Z,0.171
2019-03-08T23:00:50.607Z,0.177
2019-03-08T23:02:50.784Z,0.205
2019-03-08T23:04:50.274Z,0.120
2019-03-08T23:06:50.555Z,0.154
2019-03-08T23:08:50.743Z,0.154
2019-03-08T23:10:49.916Z,0.108
2019-03-08T23:12:50.964Z,0.143
2019-03-08T23:14:50.688Z,0.182
2019-03-08T23:16:49.971Z,0.148
2019-03-08T23:18:50.127Z,0.182
2019-03-08T23:20:50.211Z,0.131
2019-03-08T23:22:50.426Z,0.200
2019-03-08T23:24:50.600Z,0.160
2019-03-08T23:26:49.901Z,0.125
2019-03-08T23:28:50.071Z,0.171
2019-03-08T23:30:50.607Z,0.160
2019-03-08T23:32:50.806Z,0.165
2019-03-08T23:34:50.186Z,0.154
2019-03-08T23:36:50.464Z,0.154
2019-03-08T23:38:51.786Z,0.114
2019-03-08T23:40:50.721Z,0.160
2019-03-08T23:42:49.974Z,0.160
2019-03-08T23:44:50.165Z,0.125
2019-03-08T23:46:51.045Z,0.211
2019-03-08T23:48:50.564Z,0.137
2019-03-08T23:50:50.768Z,0.148
2019-03-08T23:52:49.951Z,0.143
2019-03-08T23:54:50.092Z,0.182
2019-03-08T23:56:50.348Z,0.125
2019-03-08T23:58:50.573Z,0.148
